sensor_id;sensor_type;location;lat;lon;timestamp;pressure;altitude;pressure_sealevel;temperature;humidity
71716;BME280;59568;52.128;5.434;2023-03-19T00:00:31;101180.69;;;10.04;93.03
71716;BME280;59568;52.128;5.434;2023-03-19T00:02:57;101188.78;;;10.03;93.33
71716;BME280;59568;52.128;5.434;2023-03-19T00:05:24;101177.84;;;10.00;93.37
71716;BME280;59568;52.128;5.434;2023-03-19T00:07:51;101180.44;;;10.00;93.67
71716;BME280;59568;52.128;5.434;2023-03-19T00:10:17;101191.16;;;9.99;93.83
71716;BME280;59568;52.128;5.434;2023-03-19T00:12:44;101179.69;;;10.00;94.05
71716;BME280;59568;52.128;5.434;2023-03-19T00:15:11;101188.03;;;10.02;94.17
71716;BME280;59568;52.128;5.434;2023-03-19T00:17:40;101185.91;;;10.04;94.30
71716;BME280;59568;52.128;5.434;2023-03-19T00:20:10;101183.56;;;10.03;94.00
71716;BME280;59568;52.128;5.434;2023-03-19T00:22:37;101183.31;;;10.04;94.39
71716;BME280;59568;52.128;5.434;2023-03-19T00:25:06;101193.25;;;10.02;94.52
71716;BME280;59568;52.128;5.434;2023-03-19T00:27:33;101189.81;;;10.02;94.68
71716;BME280;59568;52.128;5.434;2023-03-19T00:30:00;101195.34;;;10.00;94.74
71716;BME280;59568;52.128;5.434;2023-03-19T00:32:27;101193.00;;;9.98;94.86
71716;BME280;59568;52.128;5.434;2023-03-19T00:34:54;101198.22;;;9.98;94.70
71716;BME280;59568;52.128;5.434;2023-03-19T00:37:20;101202.94;;;9.96;94.81
71716;BME280;59568;52.128;5.434;2023-03-19T00:39:47;101201.63;;;9.94;94.87
71716;BME280;59568;52.128;5.434;2023-03-19T00:42:14;101201.63;;;9.94;95.01
71716;BME280;59568;52.128;5.434;2023-03-19T00:44:40;101196.19;;;9.90;94.84
71716;BME280;59568;52.128;5.434;2023-03-19T00:47:07;101199.06;;;9.89;95.10
71716;BME280;59568;52.128;5.434;2023-03-19T00:49:34;101200.91;;;9.88;95.04
71716;BME280;59568;52.128;5.434;2023-03-19T00:52:00;101200.91;;;9.83;95.27
71716;BME280;59568;52.128;5.434;2023-03-19T00:54:26;101203.78;;;9.82;95.23
71716;BME280;59568;52.128;5.434;2023-03-19T00:56:53;101199.66;;;9.75;95.42
71716;BME280;59568;52.128;5.434;2023-03-19T00:59:19;101199.44;;;9.72;95.30
71716;BME280;59568;52.128;5.434;2023-03-19T01:01:46;101205.69;;;9.71;95.09
71716;BME280;59568;52.128;5.434;2023-03-19T01:04:12;101197.63;;;9.67;95.06
71716;BME280;59568;52.128;5.434;2023-03-19T01:06:40;101201.56;;;9.59;94.89
71716;BME280;59568;52.128;5.434;2023-03-19T01:09:07;101201.63;;;9.54;94.77
71716;BME280;59568;52.128;5.434;2023-03-19T01:11:33;101214.16;;;9.47;94.62
71716;BME280;59568;52.128;5.434;2023-03-19T01:14:00;101209.50;;;9.39;94.58
71716;BME280;59568;52.128;5.434;2023-03-19T01:16:28;101215.28;;;9.31;94.75
71716;BME280;59568;52.128;5.434;2023-03-19T01:18:55;101215.31;;;9.26;94.75
71716;BME280;59568;52.128;5.434;2023-03-19T01:21:21;101215.56;;;9.19;95.04
71716;BME280;59568;52.128;5.434;2023-03-19T01:23:48;101214.28;;;9.16;94.96
71716;BME280;59568;52.128;5.434;2023-03-19T01:26:17;101207.00;;;9.08;95.27
71716;BME280;59568;52.128;5.434;2023-03-19T01:28:44;101206.75;;;9.05;94.99
71716;BME280;59568;52.128;5.434;2023-03-19T01:31:10;101203.38;;;8.99;95.34
71716;BME280;59568;52.128;5.434;2023-03-19T01:33:37;101199.22;;;8.93;95.55
71716;BME280;59568;52.128;5.434;2023-03-19T01:36:05;101201.84;;;8.88;95.60
71716;BME280;59568;52.128;5.434;2023-03-19T01:38:31;101201.59;;;8.84;95.71
71716;BME280;59568;52.128;5.434;2023-03-19T01:40:58;101208.91;;;8.82;95.82
71716;BME280;59568;52.128;5.434;2023-03-19T01:43:27;101212.28;;;8.83;96.17
71716;BME280;59568;52.128;5.434;2023-03-19T01:46:06;101205.50;;;8.87;96.32
71716;BME280;59568;52.128;5.434;2023-03-19T01:48:52;101207.03;;;8.93;96.58
71716;BME280;59568;52.128;5.434;2023-03-19T01:51:24;101210.16;;;8.95;96.68
71716;BME280;59568;52.128;5.434;2023-03-19T01:53:56;101193.50;;;8.96;96.70
71716;BME280;59568;52.128;5.434;2023-03-19T01:56:27;101199.75;;;8.95;96.64
71716;BME280;59568;52.128;5.434;2023-03-19T01:58:59;101208.88;;;8.97;96.57
71716;BME280;59568;52.128;5.434;2023-03-19T02:01:27;101209.13;;;8.96;96.61
71716;BME280;59568;52.128;5.434;2023-03-19T02:03:57;101202.09;;;8.96;96.44
71716;BME280;59568;52.128;5.434;2023-03-19T02:06:25;101213.03;;;8.98;96.40
71716;BME280;59568;52.128;5.434;2023-03-19T02:08:54;101208.59;;;8.99;96.52
71716;BME280;59568;52.128;5.434;2023-03-19T02:11:22;101210.16;;;9.00;96.50
71716;BME280;59568;52.128;5.434;2023-03-19T02:13:48;101217.72;;;9.02;96.77
71716;BME280;59568;52.128;5.434;2023-03-19T02:16:15;101216.66;;;9.03;97.08
71716;BME280;59568;52.128;5.434;2023-03-19T02:18:42;101212.75;;;9.05;97.11
71716;BME280;59568;52.128;5.434;2023-03-19T02:21:13;101213.25;;;9.07;97.23
71716;BME280;59568;52.128;5.434;2023-03-19T02:24:47;101220.56;;;9.10;97.35
71716;BME280;59568;52.128;5.434;2023-03-19T02:26:46;101215.88;;;9.12;97.41
71716;BME280;59568;52.128;5.434;2023-03-19T02:29:13;101211.41;;;9.13;97.64
71716;BME280;59568;52.128;5.434;2023-03-19T02:31:40;101214.81;;;9.13;97.49
71716;BME280;59568;52.128;5.434;2023-03-19T02:36:45;101205.44;;;9.07;97.27
71716;BME280;59568;52.128;5.434;2023-03-19T02:39:29;101219.81;;;8.99;96.89
71716;BME280;59568;52.128;5.434;2023-03-19T02:41:58;101218.53;;;8.92;96.72
71716;BME280;59568;52.128;5.434;2023-03-19T02:44:26;101210.72;;;8.87;96.86
71716;BME280;59568;52.128;5.434;2023-03-19T02:46:52;101214.13;;;8.82;96.65
71716;BME280;59568;52.128;5.434;2023-03-19T02:49:19;101220.38;;;8.76;96.59
71716;BME280;59568;52.128;5.434;2023-03-19T02:51:45;101218.56;;;8.71;96.79
71716;BME280;59568;52.128;5.434;2023-03-19T02:54:12;101225.84;;;8.74;97.04
71716;BME280;59568;52.128;5.434;2023-03-19T02:56:38;101224.81;;;8.75;96.83
71716;BME280;59568;52.128;5.434;2023-03-19T02:59:05;101231.84;;;8.80;97.59
71716;BME280;59568;52.128;5.434;2023-03-19T03:01:32;101226.38;;;8.82;97.98
71716;BME280;59568;52.128;5.434;2023-03-19T03:03:59;101232.09;;;8.84;97.98
71716;BME280;59568;52.128;5.434;2023-03-19T03:06:25;101234.41;;;8.85;97.97
71716;BME280;59568;52.128;5.434;2023-03-19T03:08:52;101228.44;;;8.85;98.20
71716;BME280;59568;52.128;5.434;2023-03-19T03:11:18;101234.69;;;8.84;98.40
71716;BME280;59568;52.128;5.434;2023-03-19T03:13:45;101226.88;;;8.84;98.16
71716;BME280;59568;52.128;5.434;2023-03-19T03:16:12;101232.88;;;8.84;98.14
71716;BME280;59568;52.128;5.434;2023-03-19T03:18:38;101233.66;;;8.85;98.12
71716;BME280;59568;52.128;5.434;2023-03-19T03:21:05;101235.75;;;8.83;97.91
71716;BME280;59568;52.128;5.434;2023-03-19T03:23:32;101237.84;;;8.75;97.82
71716;BME280;59568;52.128;5.434;2023-03-19T03:25:58;101236.53;;;8.73;97.85
71716;BME280;59568;52.128;5.434;2023-03-19T03:28:25;101233.41;;;8.76;98.07
71716;BME280;59568;52.128;5.434;2023-03-19T03:31:00;101234.69;;;8.78;98.46
71716;BME280;59568;52.128;5.434;2023-03-19T03:33:27;101235.22;;;8.80;98.43
71716;BME280;59568;52.128;5.434;2023-03-19T03:35:54;101232.09;;;8.78;98.15
71716;BME280;59568;52.128;5.434;2023-03-19T03:38:22;101237.56;;;8.77;97.89
71716;BME280;59568;52.128;5.434;2023-03-19T03:40:49;101234.19;;;8.71;97.96
71716;BME280;59568;52.128;5.434;2023-03-19T03:43:20;101236.81;;;8.66;97.76
71716;BME280;59568;52.128;5.434;2023-03-19T03:45:47;101248.78;;;8.62;97.74
71716;BME280;59568;52.128;5.434;2023-03-19T03:48:14;101232.38;;;8.62;97.82
71716;BME280;59568;52.128;5.434;2023-03-19T03:50:41;101243.06;;;8.60;97.93
71716;BME280;59568;52.128;5.434;2023-03-19T03:53:08;101249.03;;;8.60;98.31
71716;BME280;59568;52.128;5.434;2023-03-19T03:55:35;101242.00;;;8.61;98.14
71716;BME280;59568;52.128;5.434;2023-03-19T03:58:02;101242.53;;;8.53;98.01
71716;BME280;59568;52.128;5.434;2023-03-19T04:00:28;101239.41;;;8.46;98.00
71716;BME280;59568;52.128;5.434;2023-03-19T04:02:55;101231.81;;;8.39;97.98
71716;BME280;59568;52.128;5.434;2023-03-19T04:05:22;101234.94;;;8.31;97.96
71716;BME280;59568;52.128;5.434;2023-03-19T04:07:48;101232.84;;;8.23;97.64
71716;BME280;59568;52.128;5.434;2023-03-19T04:10:15;101233.91;;;8.16;97.78
71716;BME280;59568;52.128;5.434;2023-03-19T04:12:41;101228.94;;;8.10;98.00
71716;BME280;59568;52.128;5.434;2023-03-19T04:15:09;101233.88;;;8.06;98.15
71716;BME280;59568;52.128;5.434;2023-03-19T04:17:36;101236.22;;;8.03;98.18
71716;BME280;59568;52.128;5.434;2023-03-19T04:20:03;101225.81;;;7.97;98.62
71716;BME280;59568;52.128;5.434;2023-03-19T04:22:30;101228.38;;;7.92;98.76
71716;BME280;59568;52.128;5.434;2023-03-19T04:24:57;101234.63;;;7.86;98.63
71716;BME280;59568;52.128;5.434;2023-03-19T04:27:23;101236.94;;;7.77;98.37
71716;BME280;59568;52.128;5.434;2023-03-19T04:29:50;101238.22;;;7.70;98.31
71716;BME280;59568;52.128;5.434;2023-03-19T04:32:17;101236.66;;;7.64;98.86
71716;BME280;59568;52.128;5.434;2023-03-19T04:34:43;101243.66;;;7.58;98.21
71716;BME280;59568;52.128;5.434;2023-03-19T04:37:10;101245.44;;;7.52;98.53
71716;BME280;59568;52.128;5.434;2023-03-19T04:39:36;101242.56;;;7.44;98.55
71716;BME280;59568;52.128;5.434;2023-03-19T04:42:03;101239.13;;;7.38;98.58
71716;BME280;59568;52.128;5.434;2023-03-19T04:44:29;101247.19;;;7.31;98.68
71716;BME280;59568;52.128;5.434;2023-03-19T04:46:56;101250.00;;;7.25;98.09
71716;BME280;59568;52.128;5.434;2023-03-19T04:49:23;101246.84;;;7.17;98.56
71716;BME280;59568;52.128;5.434;2023-03-19T04:51:51;101246.03;;;7.12;98.43
71716;BME280;59568;52.128;5.434;2023-03-19T04:54:17;101235.63;;;7.07;98.14
71716;BME280;59568;52.128;5.434;2023-03-19T04:56:44;101244.41;;;7.00;98.30
71716;BME280;59568;52.128;5.434;2023-03-19T04:59:10;101239.19;;;6.95;98.32
71716;BME280;59568;52.128;5.434;2023-03-19T05:01:37;101239.94;;;6.91;98.67
71716;BME280;59568;52.128;5.434;2023-03-19T05:04:04;101252.88;;;6.86;98.59
71716;BME280;59568;52.128;5.434;2023-03-19T05:06:30;101253.88;;;6.79;98.27
71716;BME280;59568;52.128;5.434;2023-03-19T05:08:58;101256.69;;;6.73;98.53
71716;BME280;59568;52.128;5.434;2023-03-19T05:11:24;101263.41;;;6.69;98.50
71716;BME280;59568;52.128;5.434;2023-03-19T05:13:51;101271.44;;;6.67;98.64
71716;BME280;59568;52.128;5.434;2023-03-19T05:16:18;101279.75;;;6.64;98.90
71716;BME280;59568;52.128;5.434;2023-03-19T05:18:45;101278.16;;;6.63;98.99
71716;BME280;59568;52.128;5.434;2023-03-19T05:21:12;101288.81;;;6.62;99.38
71716;BME280;59568;52.128;5.434;2023-03-19T05:23:39;101283.34;;;6.58;99.28
71716;BME280;59568;52.128;5.434;2023-03-19T05:26:06;101283.28;;;6.53;99.50
71716;BME280;59568;52.128;5.434;2023-03-19T05:28:34;101288.41;;;6.48;99.16
71716;BME280;59568;52.128;5.434;2023-03-19T05:31:02;101285.25;;;6.40;99.46
71716;BME280;59568;52.128;5.434;2023-03-19T05:33:29;101283.13;;;6.37;98.88
71716;BME280;59568;52.128;5.434;2023-03-19T05:35:57;101283.66;;;6.34;99.07
71716;BME280;59568;52.128;5.434;2023-03-19T05:38:24;101290.38;;;6.35;99.15
71716;BME280;59568;52.128;5.434;2023-03-19T05:40:50;101292.72;;;6.32;98.94
71716;BME280;59568;52.128;5.434;2023-03-19T05:43:17;101292.41;;;6.28;98.93
71716;BME280;59568;52.128;5.434;2023-03-19T05:45:49;101296.25;;;6.26;99.07
71716;BME280;59568;52.128;5.434;2023-03-19T05:48:17;101302.50;;;6.25;98.86
71716;BME280;59568;52.128;5.434;2023-03-19T05:50:44;101310.50;;;6.23;98.78
71716;BME280;59568;52.128;5.434;2023-03-19T05:53:10;101306.06;;;6.18;98.89
71716;BME280;59568;52.128;5.434;2023-03-19T05:55:37;101315.13;;;6.16;98.96
71716;BME280;59568;52.128;5.434;2023-03-19T05:58:03;101317.41;;;6.12;99.09
71716;BME280;59568;52.128;5.434;2023-03-19T06:00:31;101319.22;;;6.12;99.19
71716;BME280;59568;52.128;5.434;2023-03-19T06:02:57;101319.78;;;6.14;99.21
71716;BME280;59568;52.128;5.434;2023-03-19T06:05:24;101322.38;;;6.14;99.08
71716;BME280;59568;52.128;5.434;2023-03-19T06:07:50;101323.69;;;6.16;98.75
71716;BME280;59568;52.128;5.434;2023-03-19T06:10:17;101331.22;;;6.18;99.64
71716;BME280;59568;52.128;5.434;2023-03-19T06:12:44;101320.34;;;6.21;99.42
71716;BME280;59568;52.128;5.434;2023-03-19T06:15:11;101326.63;;;6.25;99.78
71716;BME280;59568;52.128;5.434;2023-03-19T06:17:38;101335.56;;;6.34;99.90
71716;BME280;59568;52.128;5.434;2023-03-19T06:20:05;101340.00;;;6.39;99.88
71716;BME280;59568;52.128;5.434;2023-03-19T06:22:32;101343.97;;;6.47;100.00
71716;BME280;59568;52.128;5.434;2023-03-19T06:24:58;101342.75;;;6.54;100.00
71716;BME280;59568;52.128;5.434;2023-03-19T06:27:25;101346.91;;;6.55;100.00
71716;BME280;59568;52.128;5.434;2023-03-19T06:29:52;101339.88;;;6.51;99.91
71716;BME280;59568;52.128;5.434;2023-03-19T06:32:18;101343.47;;;6.50;99.97
71716;BME280;59568;52.128;5.434;2023-03-19T06:34:45;101351.31;;;6.55;100.00
71716;BME280;59568;52.128;5.434;2023-03-19T06:37:12;101345.69;;;6.63;100.00
71716;BME280;59568;52.128;5.434;2023-03-19T06:39:38;101354.06;;;6.70;100.00
71716;BME280;59568;52.128;5.434;2023-03-19T06:42:05;101364.56;;;6.80;100.00
71716;BME280;59568;52.128;5.434;2023-03-19T06:44:32;101361.00;;;6.92;100.00
71716;BME280;59568;52.128;5.434;2023-03-19T06:46:59;101354.31;;;7.01;100.00
71716;BME280;59568;52.128;5.434;2023-03-19T06:49:25;101358.31;;;7.14;100.00
71716;BME280;59568;52.128;5.434;2023-03-19T06:51:52;101352.69;;;7.27;100.00
71716;BME280;59568;52.128;5.434;2023-03-19T06:54:19;101361.09;;;7.39;100.00
71716;BME280;59568;52.128;5.434;2023-03-19T06:56:45;101369.25;;;7.53;100.00
71716;BME280;59568;52.128;5.434;2023-03-19T06:59:12;101363.06;;;7.65;100.00
71716;BME280;59568;52.128;5.434;2023-03-19T07:01:40;101365.72;;;7.75;100.00
71716;BME280;59568;52.128;5.434;2023-03-19T07:04:08;101370.44;;;7.83;100.00
71716;BME280;59568;52.128;5.434;2023-03-19T07:06:35;101373.88;;;7.94;100.00
71716;BME280;59568;52.128;5.434;2023-03-19T07:09:01;101376.53;;;8.09;100.00
71716;BME280;59568;52.128;5.434;2023-03-19T07:11:28;101382.59;;;8.25;100.00
71716;BME280;59568;52.128;5.434;2023-03-19T07:13:55;101383.13;;;8.37;100.00
71716;BME280;59568;52.128;5.434;2023-03-19T07:16:21;101388.91;;;8.45;100.00
71716;BME280;59568;52.128;5.434;2023-03-19T07:18:48;101391.78;;;8.48;100.00
71716;BME280;59568;52.128;5.434;2023-03-19T07:21:14;101397.75;;;8.49;100.00
71716;BME280;59568;52.128;5.434;2023-03-19T07:23:41;101392.03;;;8.47;100.00
71716;BME280;59568;52.128;5.434;2023-03-19T07:26:08;101399.34;;;8.50;100.00
71716;BME280;59568;52.128;5.434;2023-03-19T07:28:34;101402.97;;;8.49;100.00
71716;BME280;59568;52.128;5.434;2023-03-19T07:31:01;101414.44;;;8.53;100.00
71716;BME280;59568;52.128;5.434;2023-03-19T07:33:27;101418.38;;;8.55;100.00
71716;BME280;59568;52.128;5.434;2023-03-19T07:35:54;101420.69;;;8.52;100.00
71716;BME280;59568;52.128;5.434;2023-03-19T07:38:20;101425.38;;;8.50;100.00
71716;BME280;59568;52.128;5.434;2023-03-19T07:40:49;101418.59;;;8.49;100.00
71716;BME280;59568;52.128;5.434;2023-03-19T07:43:27;101431.91;;;8.52;100.00
71716;BME280;59568;52.128;5.434;2023-03-19T07:45:54;101439.47;;;8.54;100.00
71716;BME280;59568;52.128;5.434;2023-03-19T07:48:20;101442.31;;;8.52;99.66
71716;BME280;59568;52.128;5.434;2023-03-19T07:50:49;101447.00;;;8.50;99.84
71716;BME280;59568;52.128;5.434;2023-03-19T07:53:16;101448.06;;;8.49;99.38
71716;BME280;59568;52.128;5.434;2023-03-19T07:55:43;101453.50;;;8.53;99.27
71716;BME280;59568;52.128;5.434;2023-03-19T07:58:10;101459.25;;;8.55;99.24
71716;BME280;59568;52.128;5.434;2023-03-19T08:00:37;101452.47;;;8.59;99.19
71716;BME280;59568;52.128;5.434;2023-03-19T08:03:03;101457.47;;;8.66;99.34
71716;BME280;59568;52.128;5.434;2023-03-19T08:05:30;101460.34;;;8.69;99.21
71716;BME280;59568;52.128;5.434;2023-03-19T08:07:56;101467.13;;;8.70;98.88
71716;BME280;59568;52.128;5.434;2023-03-19T08:10:23;101463.47;;;8.66;98.88
71716;BME280;59568;52.128;5.434;2023-03-19T08:12:49;101456.16;;;8.63;98.84
71716;BME280;59568;52.128;5.434;2023-03-19T08:15:16;101457.75;;;8.69;98.58
71716;BME280;59568;52.128;5.434;2023-03-19T08:17:42;101457.25;;;8.77;98.46
71716;BME280;59568;52.128;5.434;2023-03-19T08:20:11;101461.41;;;8.89;98.65
71716;BME280;59568;52.128;5.434;2023-03-19T08:22:38;101463.00;;;9.05;98.51
71716;BME280;59568;52.128;5.434;2023-03-19T08:25:06;101459.38;;;9.27;98.50
71716;BME280;59568;52.128;5.434;2023-03-19T08:27:33;101466.66;;;9.45;98.29
71716;BME280;59568;52.128;5.434;2023-03-19T08:30:03;101467.19;;;9.63;97.99
71716;BME280;59568;52.128;5.434;2023-03-19T08:32:30;101472.13;;;9.69;97.45
71716;BME280;59568;52.128;5.434;2023-03-19T08:34:56;101467.19;;;9.73;96.86
71716;BME280;59568;52.128;5.434;2023-03-19T08:37:23;101476.56;;;9.84;97.00
71716;BME280;59568;52.128;5.434;2023-03-19T08:39:50;101480.22;;;9.88;96.42
71716;BME280;59568;52.128;5.434;2023-03-19T08:42:18;101485.66;;;9.92;96.04
71716;BME280;59568;52.128;5.434;2023-03-19T08:44:45;101490.63;;;9.93;95.70
71716;BME280;59568;52.128;5.434;2023-03-19T08:47:13;101482.28;;;9.96;95.48
71716;BME280;59568;52.128;5.434;2023-03-19T08:49:40;101498.44;;;10.04;95.51
71716;BME280;59568;52.128;5.434;2023-03-19T08:52:07;101491.91;;;10.06;95.16
71716;BME280;59568;52.128;5.434;2023-03-19T08:54:34;101498.94;;;10.11;94.56
71716;BME280;59568;52.128;5.434;2023-03-19T08:57:02;101502.03;;;10.23;94.63
71716;BME280;59568;52.128;5.434;2023-03-19T08:59:29;101498.38;;;10.34;94.48
71716;BME280;59568;52.128;5.434;2023-03-19T09:01:59;101500.41;;;10.53;94.41
71716;BME280;59568;52.128;5.434;2023-03-19T09:04:26;101499.53;;;10.68;94.27
71716;BME280;59568;52.128;5.434;2023-03-19T09:06:53;101499.66;;;10.97;93.67
71716;BME280;59568;52.128;5.434;2023-03-19T09:09:21;101502.03;;;11.33;93.32
71716;BME280;59568;52.128;5.434;2023-03-19T09:11:48;101510.16;;;11.60;92.35
71716;BME280;59568;52.128;5.434;2023-03-19T09:14:15;101508.44;;;11.75;90.85
71716;BME280;59568;52.128;5.434;2023-03-19T09:16:43;101504.69;;;11.86;89.94
71716;BME280;59568;52.128;5.434;2023-03-19T09:19:09;101512.31;;;11.83;88.79
71716;BME280;59568;52.128;5.434;2023-03-19T09:21:36;101507.81;;;11.88;87.82
71716;BME280;59568;52.128;5.434;2023-03-19T09:24:03;101510.63;;;11.68;87.05
71716;BME280;59568;52.128;5.434;2023-03-19T09:26:30;101518.81;;;11.61;87.20
71716;BME280;59568;52.128;5.434;2023-03-19T09:28:56;101517.06;;;11.51;87.50
71716;BME280;59568;52.128;5.434;2023-03-19T09:31:24;101528.81;;;11.54;87.95
71716;BME280;59568;52.128;5.434;2023-03-19T09:33:53;101530.59;;;11.58;87.87
71716;BME280;59568;52.128;5.434;2023-03-19T09:36:20;101529.56;;;11.54;87.12
71716;BME280;59568;52.128;5.434;2023-03-19T09:38:46;101531.59;;;11.63;87.65
71716;BME280;59568;52.128;5.434;2023-03-19T09:44:02;101541.91;;;11.83;86.79
71716;BME280;59568;52.128;5.434;2023-03-19T09:49:20;101544.06;;;11.76;86.61
71716;BME280;59568;52.128;5.434;2023-03-19T09:52:06;101548.69;;;11.84;85.85
71716;BME280;59568;52.128;5.434;2023-03-19T09:54:45;101561.22;;;11.92;86.03
71716;BME280;59568;52.128;5.434;2023-03-19T09:57:14;101560.44;;;11.87;85.25
71716;BME280;59568;52.128;5.434;2023-03-19T09:59:40;101557.63;;;11.83;85.38
71716;BME280;59568;52.128;5.434;2023-03-19T10:07:43;101565.75;;;11.82;85.55
71716;BME280;59568;52.128;5.434;2023-03-19T10:13:16;101577.00;;;11.82;84.54
71716;BME280;59568;52.128;5.434;2023-03-19T10:15:50;101576.41;;;11.95;85.28
71716;BME280;59568;52.128;5.434;2023-03-19T10:18:27;101579.53;;;11.97;84.43
71716;BME280;59568;52.128;5.434;2023-03-19T10:21:12;101578.00;;;11.86;84.45
71716;BME280;59568;52.128;5.434;2023-03-19T10:24:01;101580.13;;;11.84;84.63
71716;BME280;59568;52.128;5.434;2023-03-19T10:26:32;101586.91;;;11.90;84.54
71716;BME280;59568;52.128;5.434;2023-03-19T10:31:41;101577.09;;;12.01;84.04
71716;BME280;59568;52.128;5.434;2023-03-19T10:34:22;101584.09;;;12.11;84.31
71716;BME280;59568;52.128;5.434;2023-03-19T10:37:03;101575.09;;;12.22;84.62
71716;BME280;59568;52.128;5.434;2023-03-19T10:39:37;101579.94;;;12.34;84.30
71716;BME280;59568;52.128;5.434;2023-03-19T10:47:40;101586.84;;;12.49;83.65
71716;BME280;59568;52.128;5.434;2023-03-19T10:50:14;101583.06;;;12.60;83.74
71716;BME280;59568;52.128;5.434;2023-03-19T10:52:41;101587.59;;;12.73;83.23
71716;BME280;59568;52.128;5.434;2023-03-19T10:55:14;101590.81;;;12.70;82.36
71716;BME280;59568;52.128;5.434;2023-03-19T10:57:44;101597.28;;;12.78;82.50
71716;BME280;59568;52.128;5.434;2023-03-19T11:00:21;101597.28;;;12.78;82.16
71716;BME280;59568;52.128;5.434;2023-03-19T11:02:50;101597.06;;;12.74;81.97
71716;BME280;59568;52.128;5.434;2023-03-19T11:05:27;101603.91;;;12.70;82.23
71716;BME280;59568;52.128;5.434;2023-03-19T11:08:03;101610.78;;;12.66;81.85
71716;BME280;59568;52.128;5.434;2023-03-19T11:10:32;101616.34;;;12.59;82.10
71716;BME280;59568;52.128;5.434;2023-03-19T11:13:14;101627.44;;;12.51;82.00
71716;BME280;59568;52.128;5.434;2023-03-19T11:15:46;101624.81;;;12.51;82.53
71716;BME280;59568;52.128;5.434;2023-03-19T11:18:21;101629.03;;;12.52;82.48
71716;BME280;59568;52.128;5.434;2023-03-19T11:20:54;101631.41;;;12.49;82.54
71716;BME280;59568;52.128;5.434;2023-03-19T11:23:21;101632.03;;;12.41;81.94
71716;BME280;59568;52.128;5.434;2023-03-19T11:25:58;101629.50;;;12.30;82.16
71716;BME280;59568;52.128;5.434;2023-03-19T11:28:26;101625.03;;;12.31;82.23
71716;BME280;59568;52.128;5.434;2023-03-19T11:31:09;101622.50;;;12.26;82.07
71716;BME280;59568;52.128;5.434;2023-03-19T11:41:45;101630.84;;;11.98;82.18
71716;BME280;59568;52.128;5.434;2023-03-19T11:44:28;101632.94;;;11.96;82.12
71716;BME280;59568;52.128;5.434;2023-03-19T11:47:10;101629.06;;;11.89;82.54
71716;BME280;59568;52.128;5.434;2023-03-19T11:55:55;101639.19;;;12.01;82.92
71716;BME280;59568;52.128;5.434;2023-03-19T12:01:47;101632.63;;;12.03;82.77
71716;BME280;59568;52.128;5.434;2023-03-19T12:12:41;101634.28;;;11.94;82.44
71716;BME280;59568;52.128;5.434;2023-03-19T12:26:01;101631.91;;;11.97;83.51
71716;BME280;59568;52.128;5.434;2023-03-19T12:28:34;101625.31;;;12.00;84.05
71716;BME280;59568;52.128;5.434;2023-03-19T12:31:21;101640.97;;;12.10;83.50
71716;BME280;59568;52.128;5.434;2023-03-19T12:34:21;101633.75;;;12.26;82.72
71716;BME280;59568;52.128;5.434;2023-03-19T12:37:06;101634.66;;;12.41;82.81
71716;BME280;59568;52.128;5.434;2023-03-19T12:39:36;101634.19;;;12.57;82.14
71716;BME280;59568;52.128;5.434;2023-03-19T12:42:08;101647.59;;;12.56;81.53
71716;BME280;59568;52.128;5.434;2023-03-19T12:44:40;101657.53;;;12.59;80.87
71716;BME280;59568;52.128;5.434;2023-03-19T12:47:18;101653.41;;;12.53;80.42
71716;BME280;59568;52.128;5.434;2023-03-19T12:49:53;101655.41;;;12.61;81.12
71716;BME280;59568;52.128;5.434;2023-03-19T12:55:03;101647.59;;;13.04;81.18
71716;BME280;59568;52.128;5.434;2023-03-19T12:57:36;101651.97;;;13.28;80.85
71716;BME280;59568;52.128;5.434;2023-03-19T13:02:51;101653.31;;;13.68;78.89
71716;BME280;59568;52.128;5.434;2023-03-19T13:06:19;101656.16;;;13.86;78.90
71716;BME280;59568;52.128;5.434;2023-03-19T13:08:54;101659.00;;;13.89;77.59
71716;BME280;59568;52.128;5.434;2023-03-19T13:11:50;101656.94;;;13.86;76.88
71716;BME280;59568;52.128;5.434;2023-03-19T13:17:30;101655.88;;;13.87;77.15
71716;BME280;59568;52.128;5.434;2023-03-19T13:20:06;101656.00;;;13.96;77.45
71716;BME280;59568;52.128;5.434;2023-03-19T13:22:39;101659.94;;;13.98;76.84
71716;BME280;59568;52.128;5.434;2023-03-19T13:25:15;101655.97;;;13.82;76.37
71716;BME280;59568;52.128;5.434;2023-03-19T13:27:51;101662.28;;;13.81;76.41
71716;BME280;59568;52.128;5.434;2023-03-19T13:30:20;101661.16;;;13.87;76.49
71716;BME280;59568;52.128;5.434;2023-03-19T13:32:52;101651.34;;;13.93;76.14
71716;BME280;59568;52.128;5.434;2023-03-19T13:46:34;101658.03;;;14.32;74.77
71716;BME280;59568;52.128;5.434;2023-03-19T13:49:22;101659.38;;;14.15;74.57
71716;BME280;59568;52.128;5.434;2023-03-19T13:54:52;101661.22;;;14.15;73.90
71716;BME280;59568;52.128;5.434;2023-03-19T13:57:32;101666.69;;;14.18;74.03
71716;BME280;59568;52.128;5.434;2023-03-19T14:03:23;101664.56;;;14.34;73.79
71716;BME280;59568;52.128;5.434;2023-03-19T14:05:52;101654.31;;;14.19;73.22
71716;BME280;59568;52.128;5.434;2023-03-19T14:08:22;101656.47;;;14.17;74.07
71716;BME280;59568;52.128;5.434;2023-03-19T14:10:52;101655.41;;;14.32;73.81
71716;BME280;59568;52.128;5.434;2023-03-19T14:13:28;101648.88;;;14.29;73.43
71716;BME280;59568;52.128;5.434;2023-03-19T14:16:29;101647.63;;;14.27;73.45
71716;BME280;59568;52.128;5.434;2023-03-19T14:19:00;101656.06;;;14.24;73.02
71716;BME280;59568;52.128;5.434;2023-03-19T14:21:42;101659.00;;;14.22;73.67
71716;BME280;59568;52.128;5.434;2023-03-19T14:24:38;101662.09;;;14.24;73.73
71716;BME280;59568;52.128;5.434;2023-03-19T14:27:26;101666.97;;;14.17;73.82
71716;BME280;59568;52.128;5.434;2023-03-19T14:29:57;101669.78;;;14.07;73.54
71716;BME280;59568;52.128;5.434;2023-03-19T14:32:33;101663.16;;;14.09;74.22
71716;BME280;59568;52.128;5.434;2023-03-19T14:35:03;101670.56;;;14.07;73.75